sensor_id;sensor_type;location;lat;lon;timestamp;P1;durP1;ratioP1;P2;durP2;ratioP2
46006;SDS011;31738;50.188;8.524;2023-02-08T00:01:18;11.15;;;4.05;;
46006;SDS011;31738;50.188;8.524;2023-02-08T00:03:45;10.23;;;4.43;;
46006;SDS011;31738;50.188;8.524;2023-02-08T00:06:12;8.82;;;4.50;;
46006;SDS011;31738;50.188;8.524;2023-02-08T00:08:37;10.38;;;4.70;;
46006;SDS011;31738;50.188;8.524;2023-02-08T00:11:03;10.02;;;4.07;;
46006;SDS011;31738;50.188;8.524;2023-02-08T00:13:31;8.32;;;4.47;;
46006;SDS011;31738;50.188;8.524;2023-02-08T00:15:57;7.82;;;4.13;;
46006;SDS011;31738;50.188;8.524;2023-02-08T00:18:23;9.15;;;4.43;;
46006;SDS011;31738;50.188;8.524;2023-02-08T00:20:48;8.25;;;4.05;;
46006;SDS011;31738;50.188;8.524;2023-02-08T00:23:14;10.32;;;4.45;;
46006;SDS011;31738;50.188;8.524;2023-02-08T00:25:40;11.55;;;4.93;;
46006;SDS011;31738;50.188;8.524;2023-02-08T00:28:07;11.45;;;4.57;;
46006;SDS011;31738;50.188;8.524;2023-02-08T00:30:36;10.27;;;4.50;;
46006;SDS011;31738;50.188;8.524;2023-02-08T00:33:01;10.98;;;5.28;;
46006;SDS011;31738;50.188;8.524;2023-02-08T00:35:27;9.82;;;4.55;;
46006;SDS011;31738;50.188;8.524;2023-02-08T00:37:53;10.10;;;4.55;;
46006;SDS011;31738;50.188;8.524;2023-02-08T00:40:18;9.75;;;4.38;;
46006;SDS011;31738;50.188;8.524;2023-02-08T00:42:44;8.85;;;4.65;;
46006;SDS011;31738;50.188;8.524;2023-02-08T00:48:19;10.57;;;4.60;;
46006;SDS011;31738;50.188;8.524;2023-02-08T00:50:55;7.95;;;4.03;;
46006;SDS011;31738;50.188;8.524;2023-02-08T00:53:25;8.18;;;4.10;;
46006;SDS011;31738;50.188;8.524;2023-02-08T00:55:51;10.95;;;4.72;;
46006;SDS011;31738;50.188;8.524;2023-02-08T00:58:17;10.85;;;4.50;;
46006;SDS011;31738;50.188;8.524;2023-02-08T01:00:42;12.02;;;5.00;;
46006;SDS011;31738;50.188;8.524;2023-02-08T01:03:08;12.15;;;5.13;;
46006;SDS011;31738;50.188;8.524;2023-02-08T01:05:36;8.07;;;4.45;;
46006;SDS011;31738;50.188;8.524;2023-02-08T01:08:02;9.95;;;4.63;;
46006;SDS011;31738;50.188;8.524;2023-02-08T01:10:28;11.68;;;4.85;;
46006;SDS011;31738;50.188;8.524;2023-02-08T01:12:54;10.20;;;4.82;;
46006;SDS011;31738;50.188;8.524;2023-02-08T01:15:19;14.65;;;4.97;;
46006;SDS011;31738;50.188;8.524;2023-02-08T01:17:45;9.50;;;4.30;;
46006;SDS011;31738;50.188;8.524;2023-02-08T01:20:10;11.13;;;4.80;;
46006;SDS011;31738;50.188;8.524;2023-02-08T01:22:36;9.77;;;5.03;;
46006;SDS011;31738;50.188;8.524;2023-02-08T01:25:10;9.38;;;4.40;;
46006;SDS011;31738;50.188;8.524;2023-02-08T01:27:36;11.23;;;4.85;;
46006;SDS011;31738;50.188;8.524;2023-02-08T01:30:02;11.23;;;4.53;;
46006;SDS011;31738;50.188;8.524;2023-02-08T01:32:28;11.20;;;4.80;;
46006;SDS011;31738;50.188;8.524;2023-02-08T01:34:53;10.45;;;4.78;;
46006;SDS011;31738;50.188;8.524;2023-02-08T01:37:28;10.65;;;5.07;;
46006;SDS011;31738;50.188;8.524;2023-02-08T01:39:53;9.95;;;5.05;;
46006;SDS011;31738;50.188;8.524;2023-02-08T01:42:19;9.88;;;4.50;;
46006;SDS011;31738;50.188;8.524;2023-02-08T01:48:43;7.65;;;4.18;;
46006;SDS011;31738;50.188;8.524;2023-02-08T01:51:10;9.68;;;4.80;;
46006;SDS011;31738;50.188;8.524;2023-02-08T01:53:41;12.40;;;4.68;;
46006;SDS011;31738;50.188;8.524;2023-02-08T02:00:35;9.98;;;4.82;;
46006;SDS011;31738;50.188;8.524;2023-02-08T02:03:00;11.25;;;5.03;;
46006;SDS011;31738;50.188;8.524;2023-02-08T02:05:27;9.05;;;4.57;;
46006;SDS011;31738;50.188;8.524;2023-02-08T02:07:58;7.57;;;3.92;;
46006;SDS011;31738;50.188;8.524;2023-02-08T02:10:27;8.05;;;4.43;;
46006;SDS011;31738;50.188;8.524;2023-02-08T02:12:54;12.90;;;5.57;;
46006;SDS011;31738;50.188;8.524;2023-02-08T02:15:22;9.70;;;4.80;;
46006;SDS011;31738;50.188;8.524;2023-02-08T02:17:48;12.18;;;4.88;;
46006;SDS011;31738;50.188;8.524;2023-02-08T02:34:19;10.35;;;5.07;;
46006;SDS011;31738;50.188;8.524;2023-02-08T02:39:48;8.68;;;4.78;;
46006;SDS011;31738;50.188;8.524;2023-02-08T02:48:37;11.82;;;4.68;;
46006;SDS011;31738;50.188;8.524;2023-02-08T02:51:16;10.80;;;5.00;;
46006;SDS011;31738;50.188;8.524;2023-02-08T02:53:51;12.23;;;5.15;;
46006;SDS011;31738;50.188;8.524;2023-02-08T02:56:26;10.75;;;5.25;;
46006;SDS011;31738;50.188;8.524;2023-02-08T02:58:55;12.00;;;5.75;;
46006;SDS011;31738;50.188;8.524;2023-02-08T03:01:25;11.52;;;5.25;;
46006;SDS011;31738;50.188;8.524;2023-02-08T03:03:51;16.45;;;5.38;;
46006;SDS011;31738;50.188;8.524;2023-02-08T03:06:21;11.95;;;5.25;;
46006;SDS011;31738;50.188;8.524;2023-02-08T03:09:00;9.52;;;4.88;;
46006;SDS011;31738;50.188;8.524;2023-02-08T03:11:52;13.77;;;4.78;;
46006;SDS011;31738;50.188;8.524;2023-02-08T03:14:40;13.35;;;5.28;;
46006;SDS011;31738;50.188;8.524;2023-02-08T03:29:50;11.20;;;5.18;;
46006;SDS011;31738;50.188;8.524;2023-02-08T03:32:25;10.50;;;4.90;;
46006;SDS011;31738;50.188;8.524;2023-02-08T03:35:01;11.73;;;5.72;;
46006;SDS011;31738;50.188;8.524;2023-02-08T03:37:34;13.35;;;5.53;;
46006;SDS011;31738;50.188;8.524;2023-02-08T03:40:06;11.18;;;5.38;;
46006;SDS011;31738;50.188;8.524;2023-02-08T03:42:36;10.18;;;4.82;;
46006;SDS011;31738;50.188;8.524;2023-02-08T03:45:21;10.43;;;5.28;;
46006;SDS011;31738;50.188;8.524;2023-02-08T03:47:50;11.32;;;5.38;;
46006;SDS011;31738;50.188;8.524;2023-02-08T03:50:18;11.43;;;5.45;;
46006;SDS011;31738;50.188;8.524;2023-02-08T03:52:46;10.85;;;4.93;;
46006;SDS011;31738;50.188;8.524;2023-02-08T03:55:16;14.68;;;5.70;;
46006;SDS011;31738;50.188;8.524;2023-02-08T03:57:47;13.45;;;5.20;;
46006;SDS011;31738;50.188;8.524;2023-02-08T04:00:17;12.43;;;5.90;;
46006;SDS011;31738;50.188;8.524;2023-02-08T04:02:54;12.38;;;5.53;;
46006;SDS011;31738;50.188;8.524;2023-02-08T04:05:23;10.80;;;4.95;;
46006;SDS011;31738;50.188;8.524;2023-02-08T04:07:50;14.43;;;6.10;;
46006;SDS011;31738;50.188;8.524;2023-02-08T04:10:16;11.63;;;5.75;;
46006;SDS011;31738;50.188;8.524;2023-02-08T04:12:42;13.63;;;6.28;;
46006;SDS011;31738;50.188;8.524;2023-02-08T04:15:09;16.98;;;7.13;;
46006;SDS011;31738;50.188;8.524;2023-02-08T04:17:35;16.35;;;8.02;;
46006;SDS011;31738;50.188;8.524;2023-02-08T04:20:00;15.77;;;6.50;;
46006;SDS011;31738;50.188;8.524;2023-02-08T04:22:26;10.70;;;5.75;;
46006;SDS011;31738;50.188;8.524;2023-02-08T04:24:51;11.77;;;5.50;;
46006;SDS011;31738;50.188;8.524;2023-02-08T04:27:17;11.10;;;4.93;;
46006;SDS011;31738;50.188;8.524;2023-02-08T04:29:42;12.75;;;5.63;;
46006;SDS011;31738;50.188;8.524;2023-02-08T04:32:08;13.38;;;6.25;;
46006;SDS011;31738;50.188;8.524;2023-02-08T04:34:38;13.23;;;5.93;;
46006;SDS011;31738;50.188;8.524;2023-02-08T04:37:05;11.85;;;5.80;;
46006;SDS011;31738;50.188;8.524;2023-02-08T04:39:31;11.90;;;5.88;;
46006;SDS011;31738;50.188;8.524;2023-02-08T04:41:57;14.90;;;6.30;;
46006;SDS011;31738;50.188;8.524;2023-02-08T04:44:22;15.35;;;5.47;;
46006;SDS011;31738;50.188;8.524;2023-02-08T04:46:48;10.13;;;5.05;;
46006;SDS011;31738;50.188;8.524;2023-02-08T04:49:14;11.05;;;5.35;;
46006;SDS011;31738;50.188;8.524;2023-02-08T04:51:39;9.48;;;5.32;;
46006;SDS011;31738;50.188;8.524;2023-02-08T04:54:05;10.40;;;5.57;;
46006;SDS011;31738;50.188;8.524;2023-02-08T04:56:31;11.07;;;5.35;;
46006;SDS011;31738;50.188;8.524;2023-02-08T04:58:56;12.00;;;5.82;;
46006;SDS011;31738;50.188;8.524;2023-02-08T05:01:22;11.85;;;5.78;;
46006;SDS011;31738;50.188;8.524;2023-02-08T05:03:47;13.90;;;5.20;;
46006;SDS011;31738;50.188;8.524;2023-02-08T05:06:13;10.70;;;4.72;;
46006;SDS011;31738;50.188;8.524;2023-02-08T05:08:38;11.20;;;5.18;;
46006;SDS011;31738;50.188;8.524;2023-02-08T05:11:04;15.32;;;5.55;;
46006;SDS011;31738;50.188;8.524;2023-02-08T05:13:30;11.10;;;5.35;;
46006;SDS011;31738;50.188;8.524;2023-02-08T05:15:55;9.70;;;5.03;;
46006;SDS011;31738;50.188;8.524;2023-02-08T05:18:21;8.63;;;4.93;;
46006;SDS011;31738;50.188;8.524;2023-02-08T05:20:53;10.23;;;5.15;;
46006;SDS011;31738;50.188;8.524;2023-02-08T05:23:20;9.80;;;5.22;;
46006;SDS011;31738;50.188;8.524;2023-02-08T05:25:45;9.95;;;5.10;;
46006;SDS011;31738;50.188;8.524;2023-02-08T05:28:11;10.52;;;5.15;;
46006;SDS011;31738;50.188;8.524;2023-02-08T05:30:36;13.43;;;5.22;;
46006;SDS011;31738;50.188;8.524;2023-02-08T05:33:02;11.23;;;5.35;;
46006;SDS011;31738;50.188;8.524;2023-02-08T05:35:28;11.10;;;5.03;;
46006;SDS011;31738;50.188;8.524;2023-02-08T05:37:53;12.85;;;5.47;;
46006;SDS011;31738;50.188;8.524;2023-02-08T05:41:19;10.30;;;5.17;;
46006;SDS011;31738;50.188;8.524;2023-02-08T05:43:44;13.95;;;5.65;;
46006;SDS011;31738;50.188;8.524;2023-02-08T05:46:10;12.35;;;5.47;;
46006;SDS011;31738;50.188;8.524;2023-02-08T05:48:36;9.68;;;5.18;;
46006;SDS011;31738;50.188;8.524;2023-02-08T05:51:02;12.38;;;5.80;;
46006;SDS011;31738;50.188;8.524;2023-02-08T05:53:28;9.27;;;5.43;;
46006;SDS011;31738;50.188;8.524;2023-02-08T05:55:55;13.75;;;6.15;;
46006;SDS011;31738;50.188;8.524;2023-02-08T05:58:21;14.48;;;5.80;;
46006;SDS011;31738;50.188;8.524;2023-02-08T06:00:46;10.10;;;5.18;;
46006;SDS011;31738;50.188;8.524;2023-02-08T06:03:12;11.75;;;5.32;;
46006;SDS011;31738;50.188;8.524;2023-02-08T06:05:38;12.43;;;5.80;;
46006;SDS011;31738;50.188;8.524;2023-02-08T06:08:05;10.65;;;5.47;;
46006;SDS011;31738;50.188;8.524;2023-02-08T06:10:31;10.50;;;5.28;;
46006;SDS011;31738;50.188;8.524;2023-02-08T06:12:56;12.10;;;5.95;;
46006;SDS011;31738;50.188;8.524;2023-02-08T06:15:22;10.98;;;5.47;;
46006;SDS011;31738;50.188;8.524;2023-02-08T06:17:47;13.70;;;5.70;;
46006;SDS011;31738;50.188;8.524;2023-02-08T06:20:13;12.68;;;5.05;;
46006;SDS011;31738;50.188;8.524;2023-02-08T06:22:38;9.75;;;5.13;;
46006;SDS011;31738;50.188;8.524;2023-02-08T06:25:04;12.57;;;5.45;;
46006;SDS011;31738;50.188;8.524;2023-02-08T06:27:30;11.27;;;5.35;;
46006;SDS011;31738;50.188;8.524;2023-02-08T06:29:55;13.95;;;5.70;;
46006;SDS011;31738;50.188;8.524;2023-02-08T06:32:21;12.13;;;5.30;;
46006;SDS011;31738;50.188;8.524;2023-02-08T06:34:46;13.38;;;6.35;;
46006;SDS011;31738;50.188;8.524;2023-02-08T06:37:15;12.13;;;5.38;;
46006;SDS011;31738;50.188;8.524;2023-02-08T06:39:41;14.52;;;6.13;;
46006;SDS011;31738;50.188;8.524;2023-02-08T06:42:06;12.38;;;5.75;;
46006;SDS011;31738;50.188;8.524;2023-02-08T06:44:32;15.98;;;5.45;;
46006;SDS011;31738;50.188;8.524;2023-02-08T06:46:57;13.13;;;5.65;;
46006;SDS011;31738;50.188;8.524;2023-02-08T06:49:23;12.32;;;6.15;;
46006;SDS011;31738;50.188;8.524;2023-02-08T06:51:48;13.20;;;5.60;;
46006;SDS011;31738;50.188;8.524;2023-02-08T06:54:14;10.10;;;5.30;;
46006;SDS011;31738;50.188;8.524;2023-02-08T06:56:39;11.52;;;5.22;;
46006;SDS011;31738;50.188;8.524;2023-02-08T06:59:05;14.77;;;5.55;;
46006;SDS011;31738;50.188;8.524;2023-02-08T07:01:31;13.50;;;5.75;;
46006;SDS011;31738;50.188;8.524;2023-02-08T07:03:56;12.27;;;5.72;;
46006;SDS011;31738;50.188;8.524;2023-02-08T07:06:21;11.10;;;5.32;;
46006;SDS011;31738;50.188;8.524;2023-02-08T07:08:47;13.35;;;5.75;;
46006;SDS011;31738;50.188;8.524;2023-02-08T07:11:13;15.00;;;5.85;;
46006;SDS011;31738;50.188;8.524;2023-02-08T07:13:40;13.65;;;6.07;;
46006;SDS011;31738;50.188;8.524;2023-02-08T07:16:07;15.48;;;6.70;;
46006;SDS011;31738;50.188;8.524;2023-02-08T07:18:34;13.02;;;5.75;;
46006;SDS011;31738;50.188;8.524;2023-02-08T07:21:00;14.30;;;6.53;;
46006;SDS011;31738;50.188;8.524;2023-02-08T07:23:26;12.63;;;6.43;;
46006;SDS011;31738;50.188;8.524;2023-02-08T07:25:58;11.75;;;5.72;;
46006;SDS011;31738;50.188;8.524;2023-02-08T07:28:29;14.65;;;6.10;;
46006;SDS011;31738;50.188;8.524;2023-02-08T07:31:27;14.63;;;6.20;;
46006;SDS011;31738;50.188;8.524;2023-02-08T07:33:46;14.30;;;6.00;;
46006;SDS011;31738;50.188;8.524;2023-02-08T07:36:11;14.82;;;5.93;;
46006;SDS011;31738;50.188;8.524;2023-02-08T07:38:37;16.75;;;6.50;;
46006;SDS011;31738;50.188;8.524;2023-02-08T07:41:06;13.52;;;6.10;;
46006;SDS011;31738;50.188;8.524;2023-02-08T07:43:34;11.85;;;6.35;;
46006;SDS011;31738;50.188;8.524;2023-02-08T07:46:05;15.15;;;6.25;;
46006;SDS011;31738;50.188;8.524;2023-02-08T07:48:31;16.42;;;6.80;;
46006;SDS011;31738;50.188;8.524;2023-02-08T07:50:56;12.75;;;6.50;;
46006;SDS011;31738;50.188;8.524;2023-02-08T07:53:22;12.45;;;6.05;;
46006;SDS011;31738;50.188;8.524;2023-02-08T07:55:47;14.73;;;6.18;;
46006;SDS011;31738;50.188;8.524;2023-02-08T07:58:13;16.15;;;6.18;;
46006;SDS011;31738;50.188;8.524;2023-02-08T08:00:38;24.17;;;7.07;;
46006;SDS011;31738;50.188;8.524;2023-02-08T08:03:04;16.10;;;6.38;;
46006;SDS011;31738;50.188;8.524;2023-02-08T08:05:30;14.40;;;6.75;;
46006;SDS011;31738;50.188;8.524;2023-02-08T08:07:55;18.05;;;6.88;;
46006;SDS011;31738;50.188;8.524;2023-02-08T08:10:21;16.88;;;7.03;;
46006;SDS011;31738;50.188;8.524;2023-02-08T08:12:46;15.07;;;6.95;;
46006;SDS011;31738;50.188;8.524;2023-02-08T08:15:12;17.08;;;7.50;;
46006;SDS011;31738;50.188;8.524;2023-02-08T08:17:37;17.27;;;7.28;;
46006;SDS011;31738;50.188;8.524;2023-02-08T08:20:07;17.67;;;7.47;;
46006;SDS011;31738;50.188;8.524;2023-02-08T08:22:34;16.85;;;6.63;;
46006;SDS011;31738;50.188;8.524;2023-02-08T08:29:00;16.45;;;6.78;;
46006;SDS011;31738;50.188;8.524;2023-02-08T08:31:27;17.00;;;8.13;;
46006;SDS011;31738;50.188;8.524;2023-02-08T08:33:54;18.15;;;7.75;;
46006;SDS011;31738;50.188;8.524;2023-02-08T08:36:29;20.70;;;7.80;;
46006;SDS011;31738;50.188;8.524;2023-02-08T08:38:55;18.85;;;8.05;;
46006;SDS011;31738;50.188;8.524;2023-02-08T08:45:27;16.35;;;7.80;;
46006;SDS011;31738;50.188;8.524;2023-02-08T08:47:56;19.85;;;8.20;;
46006;SDS011;31738;50.188;8.524;2023-02-08T08:57:33;16.45;;;7.47;;
46006;SDS011;31738;50.188;8.524;2023-02-08T08:59:59;18.60;;;8.93;;
46006;SDS011;31738;50.188;8.524;2023-02-08T09:02:24;19.80;;;8.80;;
46006;SDS011;31738;50.188;8.524;2023-02-08T09:04:50;21.10;;;9.32;;
46006;SDS011;31738;50.188;8.524;2023-02-08T09:11:30;16.80;;;8.43;;
46006;SDS011;31738;50.188;8.524;2023-02-08T09:13:57;19.15;;;8.38;;
46006;SDS011;31738;50.188;8.524;2023-02-08T09:16:23;20.73;;;9.45;;
46006;SDS011;31738;50.188;8.524;2023-02-08T09:18:49;21.83;;;9.27;;
46006;SDS011;31738;50.188;8.524;2023-02-08T09:21:15;21.58;;;9.82;;
46006;SDS011;31738;50.188;8.524;2023-02-08T09:23:43;22.08;;;10.20;;
46006;SDS011;31738;50.188;8.524;2023-02-08T09:26:10;18.27;;;9.45;;
46006;SDS011;31738;50.188;8.524;2023-02-08T09:28:37;22.17;;;10.25;;
46006;SDS011;31738;50.188;8.524;2023-02-08T09:31:14;22.17;;;10.73;;
46006;SDS011;31738;50.188;8.524;2023-02-08T09:33:44;19.35;;;9.57;;
46006;SDS011;31738;50.188;8.524;2023-02-08T09:36:10;19.38;;;10.02;;
46006;SDS011;31738;50.188;8.524;2023-02-08T09:38:36;22.27;;;10.95;;
46006;SDS011;31738;50.188;8.524;2023-02-08T09:44:09;22.02;;;10.80;;
46006;SDS011;31738;50.188;8.524;2023-02-08T09:46:57;21.45;;;9.90;;
46006;SDS011;31738;50.188;8.524;2023-02-08T09:49:30;21.85;;;10.18;;
46006;SDS011;31738;50.188;8.524;2023-02-08T09:52:01;21.92;;;10.50;;
46006;SDS011;31738;50.188;8.524;2023-02-08T09:54:35;22.08;;;10.43;;
46006;SDS011;31738;50.188;8.524;2023-02-08T09:57:04;20.60;;;10.10;;
46006;SDS011;31738;50.188;8.524;2023-02-08T09:59:34;21.88;;;10.43;;
46006;SDS011;31738;50.188;8.524;2023-02-08T10:02:16;22.63;;;10.65;;
46006;SDS011;31738;50.188;8.524;2023-02-08T10:04:54;22.23;;;10.23;;
46006;SDS011;31738;50.188;8.524;2023-02-08T10:07:23;25.50;;;11.48;;
46006;SDS011;31738;50.188;8.524;2023-02-08T10:09:51;21.73;;;11.60;;
46006;SDS011;31738;50.188;8.524;2023-02-08T10:12:22;26.73;;;12.55;;
46006;SDS011;31738;50.188;8.524;2023-02-08T10:14:58;22.13;;;10.93;;
46006;SDS011;31738;50.188;8.524;2023-02-08T10:17:40;23.20;;;11.10;;
46006;SDS011;31738;50.188;8.524;2023-02-08T10:22:57;23.80;;;11.30;;
46006;SDS011;31738;50.188;8.524;2023-02-08T10:31:34;20.90;;;9.95;;
46006;SDS011;31738;50.188;8.524;2023-02-08T10:34:21;25.90;;;10.60;;
46006;SDS011;31738;50.188;8.524;2023-02-08T10:36:54;21.58;;;10.45;;
46006;SDS011;31738;50.188;8.524;2023-02-08T10:39:24;20.08;;;9.98;;
46006;SDS011;31738;50.188;8.524;2023-02-08T10:41:53;22.50;;;10.50;;
46006;SDS011;31738;50.188;8.524;2023-02-08T10:44:33;23.92;;;10.10;;
46006;SDS011;31738;50.188;8.524;2023-02-08T10:47:34;24.05;;;10.30;;
46006;SDS011;31738;50.188;8.524;2023-02-08T10:53:00;25.05;;;10.52;;
46006;SDS011;31738;50.188;8.524;2023-02-08T10:55:26;24.83;;;11.15;;
46006;SDS011;31738;50.188;8.524;2023-02-08T10:57:53;24.70;;;11.68;;
46006;SDS011;31738;50.188;8.524;2023-02-08T11:00:31;23.65;;;11.45;;
46006;SDS011;31738;50.188;8.524;2023-02-08T11:03:01;22.65;;;11.20;;
46006;SDS011;31738;50.188;8.524;2023-02-08T11:05:51;23.35;;;11.13;;
46006;SDS011;31738;50.188;8.524;2023-02-08T11:08:21;23.90;;;11.88;;
46006;SDS011;31738;50.188;8.524;2023-02-08T11:10:56;24.02;;;11.18;;
46006;SDS011;31738;50.188;8.524;2023-02-08T11:13:26;24.05;;;12.35;;
46006;SDS011;31738;50.188;8.524;2023-02-08T11:16:10;22.45;;;10.88;;
46006;SDS011;31738;50.188;8.524;2023-02-08T11:18:46;25.08;;;11.10;;
46006;SDS011;31738;50.188;8.524;2023-02-08T11:23:54;23.30;;;11.57;;
46006;SDS011;31738;50.188;8.524;2023-02-08T11:34:38;25.48;;;11.70;;
46006;SDS011;31738;50.188;8.524;2023-02-08T11:37:14;16.47;;;8.13;;
46006;SDS011;31738;50.188;8.524;2023-02-08T11:44:50;29.00;;;12.00;;
46006;SDS011;31738;50.188;8.524;2023-02-08T11:47:22;22.42;;;11.15;;
46006;SDS011;31738;50.188;8.524;2023-02-08T11:49:51;20.52;;;10.88;;
46006;SDS011;31738;50.188;8.524;2023-02-08T11:54:49;22.33;;;11.27;;
46006;SDS011;31738;50.188;8.524;2023-02-08T11:57:23;20.73;;;10.38;;
46006;SDS011;31738;50.188;8.524;2023-02-08T12:00:11;20.80;;;11.05;;
46006;SDS011;31738;50.188;8.524;2023-02-08T12:02:41;20.98;;;10.85;;
46006;SDS011;31738;50.188;8.524;2023-02-08T12:05:17;24.27;;;11.98;;
46006;SDS011;31738;50.188;8.524;2023-02-08T12:07:55;21.27;;;10.98;;
46006;SDS011;31738;50.188;8.524;2023-02-08T12:10:33;20.98;;;10.98;;
46006;SDS011;31738;50.188;8.524;2023-02-08T12:18:35;24.27;;;11.20;;
46006;SDS011;31738;50.188;8.524;2023-02-08T12:21:35;21.67;;;11.30;;
46006;SDS011;31738;50.188;8.524;2023-02-08T12:29:40;19.92;;;11.10;;
46006;SDS011;31738;50.188;8.524;2023-02-08T12:35:33;26.92;;;12.35;;
46006;SDS011;31738;50.188;8.524;2023-02-08T12:37:52;24.73;;;12.30;;
46006;SDS011;31738;50.188;8.524;2023-02-08T12:46:39;25.30;;;12.10;;
46006;SDS011;31738;50.188;8.524;2023-02-08T12:55:02;22.17;;;11.48;;
46006;SDS011;31738;50.188;8.524;2023-02-08T12:57:37;23.70;;;11.77;;
46006;SDS011;31738;50.188;8.524;2023-02-08T13:00:07;25.15;;;11.65;;
46006;SDS011;31738;50.188;8.524;2023-02-08T13:02:57;22.00;;;11.98;;
46006;SDS011;31738;50.188;8.524;2023-02-08T13:09:03;22.52;;;10.77;;
46006;SDS011;31738;50.188;8.524;2023-02-08T13:11:58;20.98;;;10.23;;
46006;SDS011;31738;50.188;8.524;2023-02-08T13:14:31;21.70;;;10.65;;
46006;SDS011;31738;50.188;8.524;2023-02-08T13:20:06;21.58;;;10.65;;
46006;SDS011;31738;50.188;8.524;2023-02-08T13:22:43;25.65;;;11.10;;
46006;SDS011;31738;50.188;8.524;2023-02-08T13:25:21;23.17;;;11.55;;
46006;SDS011;31738;50.188;8.524;2023-02-08T13:27:55;22.83;;;11.10;;
46006;SDS011;31738;50.188;8.524;2023-02-08T13:30:24;21.70;;;10.48;;
46006;SDS011;31738;50.188;8.524;2023-02-08T13:32:50;21.27;;;10.90;;
46006;SDS011;31738;50.188;8.524;2023-02-08T13:35:18;21.73;;;10.10;;
46006;SDS011;31738;50.188;8.524;2023-02-08T13:51:01;28.45;;;10.30;;
46006;SDS011;31738;50.188;8.524;2023-02-08T13:56:36;20.42;;;10.13;;
46006;SDS011;31738;50.188;8.524;2023-02-08T13:59:02;17.70;;;9.73;;
46006;SDS011;31738;50.188;8.524;2023-02-08T14:07:51;24.75;;;10.50;;
46006;SDS011;31738;50.188;8.524;2023-02-08T14:13:16;19.77;;;8.77;;
46006;SDS011;31738;50.188;8.524;2023-02-08T14:18:56;17.65;;;8.45;;
46006;SDS011;31738;50.188;8.524;2023-02-08T14:21:35;18.13;;;8.10;;
46006;SDS011;31738;50.188;8.524;2023-02-08T14:24:07;18.05;;;8.43;;
46006;SDS011;31738;50.188;8.524;2023-02-08T14:26:44;14.27;;;7.53;;
46006;SDS011;31738;50.188;8.524;2023-02-08T14:29:16;15.18;;;7.75;;
46006;SDS011;31738;50.188;8.524;2023-02-08T14:31:47;15.98;;;8.55;;
46006;SDS011;31738;50.188;8.524;2023-02-08T14:34:22;16.80;;;8.68;;
46006;SDS011;31738;50.188;8.524;2023-02-08T14:36:59;19.60;;;7.95;;
46006;SDS011;31738;50.188;8.524;2023-02-08T14:39:34;17.27;;;7.97;;
46006;SDS011;31738;50.188;8.524;2023-02-08T14:47:12;14.88;;;8.15;;
46006;SDS011;31738;50.188;8.524;2023-02-08T14:50:19;15.85;;;8.00;;
46006;SDS011;31738;50.188;8.524;2023-02-08T14:52:51;13.25;;;7.30;;
46006;SDS011;31738;50.188;8.524;2023-02-08T14:55:22;14.85;;;7.32;;
46006;SDS011;31738;50.188;8.524;2023-02-08T14:57:55;17.00;;;8.13;;
46006;SDS011;31738;50.188;8.524;2023-02-08T15:00:24;19.55;;;8.02;;
46006;SDS011;31738;50.188;8.524;2023-02-08T15:02:52;15.13;;;7.65;;
46006;SDS011;31738;50.188;8.524;2023-02-08T15:05:40;15.10;;;6.72;;
46006;SDS011;31738;50.188;8.524;2023-02-08T15:08:27;15.77;;;7.30;;
46006;SDS011;31738;50.188;8.524;2023-02-08T15:10:53;15.07;;;7.50;;
46006;SDS011;31738;50.188;8.524;2023-02-08T15:13:21;18.83;;;8.18;;
46006;SDS011;31738;50.188;8.524;2023-02-08T15:15:54;15.55;;;7.32;;
46006;SDS011;31738;50.188;8.524;2023-02-08T15:18:27;14.15;;;6.72;;
46006;SDS011;31738;50.188;8.524;2023-02-08T15:20:58;17.45;;;7.68;;
46006;SDS011;31738;50.188;8.524;2023-02-08T15:23:29;12.60;;;6.82;;
46006;SDS011;31738;50.188;8.524;2023-02-08T15:25:56;14.38;;;7.05;;
46006;SDS011;31738;50.188;8.524;2023-02-08T15:28:25;13.95;;;6.90;;
46006;SDS011;31738;50.188;8.524;2023-02-08T15:31:01;13.45;;;6.65;;
46006;SDS011;31738;50.188;8.524;2023-02-08T15:33:33;14.23;;;6.38;;
46006;SDS011;31738;50.188;8.524;2023-02-08T15:36:07;12.80;;;6.35;;
46006;SDS011;31738;50.188;8.524;2023-02-08T15:38:39;12.88;;;6.45;;
46006;SDS011;31738;50.188;8.524;2023-02-08T15:41:09;14.80;;;6.97;;
46006;SDS011;31738;50.188;8.524;2023-02-08T15:43:39;13.25;;;6.80;;
46006;SDS011;31738;50.188;8.524;2023-02-08T15:46:16;12.38;;;6.40;;
46006;SDS011;31738;50.188;8.524;2023-02-08T15:48:47;13.30;;;6.57;;
46006;SDS011;31738;50.188;8.524;2023-02-08T15:51:14;12.60;;;6.47;;
46006;SDS011;31738;50.188;8.524;2023-02-08T15:53:42;14.85;;;6.07;;
46006;SDS011;31738;50.188;8.524;2023-02-08T15:56:09;13.63;;;5.63;;
46006;SDS011;31738;50.188;8.524;2023-02-08T15:58:44;12.35;;;5.97;;
46006;SDS011;31738;50.188;8.524;2023-02-08T16:01:17;13.18;;;6.15;;
46006;SDS011;31738;50.188;8.524;2023-02-08T16:03:48;13.45;;;5.97;;
46006;SDS011;31738;50.188;8.524;2023-02-08T16:06:28;14.13;;;6.20;;
46006;SDS011;31738;50.188;8.524;2023-02-08T16:08:59;12.15;;;5.75;;
46006;SDS011;31738;50.188;8.524;2023-02-08T16:11:30;13.90;;;5.97;;
46006;SDS011;31738;50.188;8.524;2023-02-08T16:13:59;17.35;;;7.20;;
46006;SDS011;31738;50.188;8.524;2023-02-08T16:21:43;12.80;;;6.28;;
46006;SDS011;31738;50.188;8.524;2023-02-08T16:26:35;10.55;;;5.28;;
46006;SDS011;31738;50.188;8.524;2023-02-08T16:29:19;11.98;;;5.80;;
46006;SDS011;31738;50.188;8.524;2023-02-08T16:34:32;14.30;;;6.20;;
46006;SDS011;31738;50.188;8.524;2023-02-08T16:37:03;10.63;;;5.70;;
46006;SDS011;31738;50.188;8.524;2023-02-08T16:42:26;11.77;;;5.60;;
46006;SDS011;31738;50.188;8.524;2023-02-08T16:50:19;11.93;;;5.22;;
46006;SDS011;31738;50.188;8.524;2023-02-08T16:52:53;9.98;;;4.75;;
46006;SDS011;31738;50.188;8.524;2023-02-08T16:55:27;10.55;;;5.10;;
46006;SDS011;31738;50.188;8.524;2023-02-08T16:57:56;12.27;;;5.57;;
46006;SDS011;31738;50.188;8.524;2023-02-08T17:02:53;10.20;;;5.07;;
46006;SDS011;31738;50.188;8.524;2023-02-08T17:05:20;9.20;;;4.75;;
46006;SDS011;31738;50.188;8.524;2023-02-08T17:07:47;10.35;;;5.03;;
46006;SDS011;31738;50.188;8.524;2023-02-08T17:10:24;10.45;;;4.95;;
46006;SDS011;31738;50.188;8.524;2023-02-08T17:12:52;12.60;;;5.10;;
46006;SDS011;31738;50.188;8.524;2023-02-08T17:15:17;11.15;;;4.88;;
46006;SDS011;31738;50.188;8.524;2023-02-08T17:17:46;10.98;;;5.15;;
46006;SDS011;31738;50.188;8.524;2023-02-08T17:20:17;17.40;;;10.73;;
46006;SDS011;31738;50.188;8.524;2023-02-08T17:22:43;11.52;;;5.45;;
46006;SDS011;31738;50.188;8.524;2023-02-08T17:25:08;13.38;;;7.07;;
46006;SDS011;31738;50.188;8.524;2023-02-08T17:27:34;12.70;;;6.75;;
46006;SDS011;31738;50.188;8.524;2023-02-08T17:30:00;13.88;;;4.93;;
46006;SDS011;31738;50.188;8.524;2023-02-08T17:32:26;11.60;;;5.28;;
46006;SDS011;31738;50.188;8.524;2023-02-08T17:34:51;15.85;;;5.95;;
46006;SDS011;31738;50.188;8.524;2023-02-08T17:37:17;11.05;;;4.60;;
46006;SDS011;31738;50.188;8.524;2023-02-08T17:39:43;13.10;;;6.07;;
46006;SDS011;31738;50.188;8.524;2023-02-08T17:42:08;7.82;;;4.53;;
46006;SDS011;31738;50.188;8.524;2023-02-08T17:44:36;11.65;;;5.82;;
46006;SDS011;31738;50.188;8.524;2023-02-08T17:47:23;10.27;;;4.97;;
46006;SDS011;31738;50.188;8.524;2023-02-08T17:50:11;10.98;;;5.07;;
46006;SDS011;31738;50.188;8.524;2023-02-08T17:56:32;11.80;;;4.75;;
46006;SDS011;31738;50.188;8.524;2023-02-08T17:58:59;11.75;;;4.88;;
46006;SDS011;31738;50.188;8.524;2023-02-08T18:01:27;10.70;;;5.85;;